Saint Simons Island, Georgia
Current Conditions -  °F | °C
As of 1:53 AM on Monday 24 Nov 2014 (Local Time) from KSSI Reporting Station
Few Clouds Few Clouds  
Wind Chill: 68°   Ceiling: Unl
Heat Index: 68°   Visibility: 10mi
Dew Point: 67°   Wind: 5mph
Humidity: 96%   Direction: 180°S
Pressure: 29.85"   Gusts: NA
Location:  31.15°N, 81.38°W
Report Text: KSSI 240653Z AUTO 18004KT 10SM FEW090 20/19 A2985 RMK AO2 SLP108 T02000194
Loading
Personal Weather Stations






























Interactive Weather Map New forecast layout! Learn more

10-Day Weather Forecast

Advertisements
Track Severe Weather on mobile